sensor_id;sensor_type;location;lat;lon;timestamp;P1;durP1;ratioP1;P2;durP2;ratioP2
10387;SDS011;5240;51.128;4.566;2023-05-07T00:01:37;12.75;;;9.52;;
10387;SDS011;5240;51.128;4.566;2023-05-07T00:04:05;11.93;;;9.23;;
10387;SDS011;5240;51.128;4.566;2023-05-07T00:06:32;10.45;;;9.38;;
10387;SDS011;5240;51.128;4.566;2023-05-07T00:08:59;10.90;;;9.18;;
10387;SDS011;5240;51.128;4.566;2023-05-07T00:11:28;11.63;;;9.48;;
10387;SDS011;5240;51.128;4.566;2023-05-07T00:13:55;11.10;;;9.07;;
10387;SDS011;5240;51.128;4.566;2023-05-07T00:16:22;10.25;;;9.25;;
10387;SDS011;5240;51.128;4.566;2023-05-07T00:18:49;10.88;;;9.88;;
10387;SDS011;5240;51.128;4.566;2023-05-07T00:21:16;10.65;;;9.35;;
10387;SDS011;5240;51.128;4.566;2023-05-07T00:23:43;11.73;;;10.18;;
10387;SDS011;5240;51.128;4.566;2023-05-07T00:26:10;11.68;;;9.45;;
10387;SDS011;5240;51.128;4.566;2023-05-07T00:28:38;10.30;;;9.30;;
10387;SDS011;5240;51.128;4.566;2023-05-07T00:31:05;12.80;;;9.55;;
10387;SDS011;5240;51.128;4.566;2023-05-07T00:33:32;11.02;;;9.73;;
10387;SDS011;5240;51.128;4.566;2023-05-07T00:35:59;10.98;;;9.32;;
10387;SDS011;5240;51.128;4.566;2023-05-07T00:38:27;11.18;;;9.98;;
10387;SDS011;5240;51.128;4.566;2023-05-07T00:40:54;11.00;;;9.45;;
10387;SDS011;5240;51.128;4.566;2023-05-07T00:43:21;10.40;;;9.27;;
10387;SDS011;5240;51.128;4.566;2023-05-07T00:45:49;11.18;;;10.02;;
10387;SDS011;5240;51.128;4.566;2023-05-07T00:48:16;10.55;;;9.40;;
10387;SDS011;5240;51.128;4.566;2023-05-07T00:50:44;12.02;;;9.35;;
10387;SDS011;5240;51.128;4.566;2023-05-07T00:53:12;12.75;;;9.65;;
10387;SDS011;5240;51.128;4.566;2023-05-07T00:55:39;11.43;;;9.43;;
10387;SDS011;5240;51.128;4.566;2023-05-07T00:58:06;11.55;;;9.98;;
10387;SDS011;5240;51.128;4.566;2023-05-07T01:00:33;11.20;;;10.00;;
10387;SDS011;5240;51.128;4.566;2023-05-07T01:03:02;13.40;;;10.70;;
10387;SDS011;5240;51.128;4.566;2023-05-07T01:05:29;12.30;;;11.05;;
10387;SDS011;5240;51.128;4.566;2023-05-07T01:07:56;11.55;;;10.45;;
10387;SDS011;5240;51.128;4.566;2023-05-07T01:10:24;11.45;;;10.23;;
10387;SDS011;5240;51.128;4.566;2023-05-07T01:12:51;14.35;;;10.45;;
10387;SDS011;5240;51.128;4.566;2023-05-07T01:15:20;12.00;;;10.68;;
10387;SDS011;5240;51.128;4.566;2023-05-07T01:17:47;11.27;;;10.00;;
10387;SDS011;5240;51.128;4.566;2023-05-07T01:20:15;11.90;;;10.70;;
10387;SDS011;5240;51.128;4.566;2023-05-07T01:22:45;12.10;;;10.32;;
10387;SDS011;5240;51.128;4.566;2023-05-07T01:25:12;12.30;;;10.95;;
10387;SDS011;5240;51.128;4.566;2023-05-07T01:27:41;13.35;;;10.90;;
10387;SDS011;5240;51.128;4.566;2023-05-07T01:30:08;11.60;;;10.50;;
10387;SDS011;5240;51.128;4.566;2023-05-07T01:32:37;12.75;;;10.27;;
10387;SDS011;5240;51.128;4.566;2023-05-07T01:35:09;11.68;;;10.48;;
10387;SDS011;5240;51.128;4.566;2023-05-07T01:37:38;12.32;;;10.43;;
10387;SDS011;5240;51.128;4.566;2023-05-07T01:40:08;11.32;;;10.23;;
10387;SDS011;5240;51.128;4.566;2023-05-07T01:42:35;13.25;;;10.82;;
10387;SDS011;5240;51.128;4.566;2023-05-07T01:45:03;12.95;;;11.40;;
10387;SDS011;5240;51.128;4.566;2023-05-07T01:47:31;11.98;;;10.77;;
10387;SDS011;5240;51.128;4.566;2023-05-07T01:49:59;11.52;;;10.35;;
10387;SDS011;5240;51.128;4.566;2023-05-07T01:52:27;12.13;;;10.93;;
10387;SDS011;5240;51.128;4.566;2023-05-07T01:54:55;13.63;;;11.52;;
10387;SDS011;5240;51.128;4.566;2023-05-07T01:57:23;13.15;;;11.13;;
10387;SDS011;5240;51.128;4.566;2023-05-07T01:59:50;12.60;;;10.95;;
10387;SDS011;5240;51.128;4.566;2023-05-07T02:02:17;14.45;;;11.18;;
10387;SDS011;5240;51.128;4.566;2023-05-07T02:04:44;11.95;;;10.85;;
10387;SDS011;5240;51.128;4.566;2023-05-07T02:07:11;12.98;;;11.77;;
10387;SDS011;5240;51.128;4.566;2023-05-07T02:09:38;13.45;;;12.07;;
10387;SDS011;5240;51.128;4.566;2023-05-07T02:12:05;12.25;;;11.02;;
10387;SDS011;5240;51.128;4.566;2023-05-07T02:14:33;12.93;;;11.68;;
10387;SDS011;5240;51.128;4.566;2023-05-07T02:17:00;12.30;;;11.10;;
10387;SDS011;5240;51.128;4.566;2023-05-07T02:19:27;12.82;;;11.52;;
10387;SDS011;5240;51.128;4.566;2023-05-07T02:21:54;12.65;;;11.43;;
10387;SDS011;5240;51.128;4.566;2023-05-07T02:24:21;12.88;;;11.68;;
10387;SDS011;5240;51.128;4.566;2023-05-07T02:26:48;12.93;;;11.63;;
10387;SDS011;5240;51.128;4.566;2023-05-07T02:29:15;12.65;;;11.40;;
10387;SDS011;5240;51.128;4.566;2023-05-07T02:31:43;12.70;;;11.55;;
10387;SDS011;5240;51.128;4.566;2023-05-07T02:34:15;13.00;;;11.75;;
10387;SDS011;5240;51.128;4.566;2023-05-07T02:36:42;12.75;;;11.18;;
10387;SDS011;5240;51.128;4.566;2023-05-07T02:39:10;13.43;;;11.23;;
10387;SDS011;5240;51.128;4.566;2023-05-07T02:41:38;12.88;;;11.57;;
10387;SDS011;5240;51.128;4.566;2023-05-07T02:44:05;12.07;;;10.88;;
10387;SDS011;5240;51.128;4.566;2023-05-07T02:46:31;13.23;;;11.82;;
10387;SDS011;5240;51.128;4.566;2023-05-07T02:49:00;12.38;;;11.27;;
10387;SDS011;5240;51.128;4.566;2023-05-07T02:51:27;12.57;;;11.38;;
10387;SDS011;5240;51.128;4.566;2023-05-07T02:53:56;12.95;;;11.40;;
10387;SDS011;5240;51.128;4.566;2023-05-07T02:56:25;12.65;;;11.48;;
10387;SDS011;5240;51.128;4.566;2023-05-07T02:58:52;12.95;;;11.88;;
10387;SDS011;5240;51.128;4.566;2023-05-07T03:01:19;13.15;;;11.40;;
10387;SDS011;5240;51.128;4.566;2023-05-07T03:03:46;12.95;;;11.75;;
10387;SDS011;5240;51.128;4.566;2023-05-07T03:06:15;14.68;;;11.82;;
10387;SDS011;5240;51.128;4.566;2023-05-07T03:08:42;13.57;;;12.18;;
10387;SDS011;5240;51.128;4.566;2023-05-07T03:11:10;14.38;;;11.40;;
10387;SDS011;5240;51.128;4.566;2023-05-07T03:13:37;12.38;;;11.18;;
10387;SDS011;5240;51.128;4.566;2023-05-07T03:16:04;12.25;;;11.15;;
10387;SDS011;5240;51.128;4.566;2023-05-07T03:18:31;12.15;;;10.95;;
10387;SDS011;5240;51.128;4.566;2023-05-07T03:20:58;11.73;;;10.63;;
10387;SDS011;5240;51.128;4.566;2023-05-07T03:23:26;12.18;;;11.02;;
10387;SDS011;5240;51.128;4.566;2023-05-07T03:25:54;12.13;;;10.82;;
10387;SDS011;5240;51.128;4.566;2023-05-07T03:28:21;11.85;;;10.52;;
10387;SDS011;5240;51.128;4.566;2023-05-07T03:30:48;12.05;;;10.88;;
10387;SDS011;5240;51.128;4.566;2023-05-07T03:33:15;12.48;;;11.07;;
10387;SDS011;5240;51.128;4.566;2023-05-07T03:35:42;12.38;;;11.15;;
10387;SDS011;5240;51.128;4.566;2023-05-07T03:38:09;12.55;;;11.32;;
10387;SDS011;5240;51.128;4.566;2023-05-07T03:40:37;11.00;;;10.00;;
10387;SDS011;5240;51.128;4.566;2023-05-07T03:43:04;13.63;;;11.23;;
10387;SDS011;5240;51.128;4.566;2023-05-07T03:45:32;11.60;;;10.50;;
10387;SDS011;5240;51.128;4.566;2023-05-07T03:47:59;11.75;;;10.65;;
10387;SDS011;5240;51.128;4.566;2023-05-07T03:50:25;11.30;;;10.30;;
10387;SDS011;5240;51.128;4.566;2023-05-07T03:52:53;11.65;;;10.45;;
10387;SDS011;5240;51.128;4.566;2023-05-07T03:55:20;11.13;;;10.10;;
10387;SDS011;5240;51.128;4.566;2023-05-07T03:57:48;12.02;;;10.82;;
10387;SDS011;5240;51.128;4.566;2023-05-07T04:00:15;11.98;;;10.77;;
10387;SDS011;5240;51.128;4.566;2023-05-07T04:02:42;12.30;;;11.10;;
10387;SDS011;5240;51.128;4.566;2023-05-07T04:05:09;11.70;;;10.52;;
10387;SDS011;5240;51.128;4.566;2023-05-07T04:07:36;12.02;;;10.75;;
10387;SDS011;5240;51.128;4.566;2023-05-07T04:10:04;14.02;;;10.73;;
10387;SDS011;5240;51.128;4.566;2023-05-07T04:12:31;12.82;;;11.55;;
10387;SDS011;5240;51.128;4.566;2023-05-07T04:14:59;11.82;;;10.73;;
10387;SDS011;5240;51.128;4.566;2023-05-07T04:17:27;13.45;;;12.02;;
10387;SDS011;5240;51.128;4.566;2023-05-07T04:19:54;12.85;;;11.52;;
10387;SDS011;5240;51.128;4.566;2023-05-07T04:22:21;12.80;;;11.60;;
10387;SDS011;5240;51.128;4.566;2023-05-07T04:24:48;13.48;;;12.07;;
10387;SDS011;5240;51.128;4.566;2023-05-07T04:27:15;12.77;;;11.68;;
10387;SDS011;5240;51.128;4.566;2023-05-07T04:29:42;14.15;;;12.15;;
10387;SDS011;5240;51.128;4.566;2023-05-07T04:32:13;14.07;;;12.77;;
10387;SDS011;5240;51.128;4.566;2023-05-07T04:34:40;13.77;;;12.40;;
10387;SDS011;5240;51.128;4.566;2023-05-07T04:37:07;14.40;;;12.65;;
10387;SDS011;5240;51.128;4.566;2023-05-07T04:39:34;14.50;;;12.95;;
10387;SDS011;5240;51.128;4.566;2023-05-07T04:42:01;14.68;;;12.90;;
10387;SDS011;5240;51.128;4.566;2023-05-07T04:44:29;13.68;;;12.38;;
10387;SDS011;5240;51.128;4.566;2023-05-07T04:46:57;14.43;;;13.02;;
10387;SDS011;5240;51.128;4.566;2023-05-07T04:49:25;13.23;;;11.95;;
10387;SDS011;5240;51.128;4.566;2023-05-07T04:51:52;14.00;;;12.68;;
10387;SDS011;5240;51.128;4.566;2023-05-07T04:54:19;13.45;;;12.15;;
10387;SDS011;5240;51.128;4.566;2023-05-07T04:56:46;13.52;;;12.13;;
10387;SDS011;5240;51.128;4.566;2023-05-07T04:59:13;13.60;;;12.27;;
10387;SDS011;5240;51.128;4.566;2023-05-07T05:01:40;13.70;;;12.32;;
10387;SDS011;5240;51.128;4.566;2023-05-07T05:04:07;13.55;;;12.35;;
10387;SDS011;5240;51.128;4.566;2023-05-07T05:06:36;13.85;;;12.50;;
10387;SDS011;5240;51.128;4.566;2023-05-07T05:09:03;13.50;;;12.18;;
10387;SDS011;5240;51.128;4.566;2023-05-07T05:11:31;13.63;;;12.32;;
10387;SDS011;5240;51.128;4.566;2023-05-07T05:13:58;14.18;;;12.88;;
10387;SDS011;5240;51.128;4.566;2023-05-07T05:16:27;13.63;;;12.38;;
10387;SDS011;5240;51.128;4.566;2023-05-07T05:18:54;13.77;;;12.38;;
10387;SDS011;5240;51.128;4.566;2023-05-07T05:21:21;13.35;;;12.02;;
10387;SDS011;5240;51.128;4.566;2023-05-07T05:23:49;13.40;;;12.10;;
10387;SDS011;5240;51.128;4.566;2023-05-07T05:26:17;13.35;;;12.05;;
10387;SDS011;5240;51.128;4.566;2023-05-07T05:28:43;13.82;;;12.00;;
10387;SDS011;5240;51.128;4.566;2023-05-07T05:31:11;12.93;;;11.73;;
10387;SDS011;5240;51.128;4.566;2023-05-07T05:33:39;13.82;;;12.43;;
10387;SDS011;5240;51.128;4.566;2023-05-07T05:36:06;12.52;;;11.43;;
10387;SDS011;5240;51.128;4.566;2023-05-07T05:38:37;12.85;;;11.70;;
10387;SDS011;5240;51.128;4.566;2023-05-07T05:41:05;12.48;;;11.02;;
10387;SDS011;5240;51.128;4.566;2023-05-07T05:43:32;12.05;;;10.82;;
10387;SDS011;5240;51.128;4.566;2023-05-07T05:45:59;12.10;;;10.95;;
10387;SDS011;5240;51.128;4.566;2023-05-07T05:48:26;12.18;;;11.05;;
10387;SDS011;5240;51.128;4.566;2023-05-07T05:50:55;12.02;;;10.88;;
10387;SDS011;5240;51.128;4.566;2023-05-07T05:53:22;12.23;;;11.07;;
10387;SDS011;5240;51.128;4.566;2023-05-07T05:55:49;12.25;;;11.13;;
10387;SDS011;5240;51.128;4.566;2023-05-07T05:58:17;12.63;;;11.60;;
10387;SDS011;5240;51.128;4.566;2023-05-07T06:00:45;11.27;;;10.27;;
10387;SDS011;5240;51.128;4.566;2023-05-07T06:03:13;12.27;;;10.93;;
10387;SDS011;5240;51.128;4.566;2023-05-07T06:05:40;12.52;;;11.27;;
10387;SDS011;5240;51.128;4.566;2023-05-07T06:08:07;12.32;;;11.05;;
10387;SDS011;5240;51.128;4.566;2023-05-07T06:10:35;12.05;;;10.93;;
10387;SDS011;5240;51.128;4.566;2023-05-07T06:13:03;12.27;;;10.98;;
10387;SDS011;5240;51.128;4.566;2023-05-07T06:15:31;12.70;;;11.52;;
10387;SDS011;5240;51.128;4.566;2023-05-07T06:17:58;11.98;;;10.95;;
10387;SDS011;5240;51.128;4.566;2023-05-07T06:20:25;16.42;;;11.45;;
10387;SDS011;5240;51.128;4.566;2023-05-07T06:22:52;12.90;;;10.95;;
10387;SDS011;5240;51.128;4.566;2023-05-07T06:25:19;13.07;;;11.80;;
10387;SDS011;5240;51.128;4.566;2023-05-07T06:27:46;13.07;;;11.02;;
10387;SDS011;5240;51.128;4.566;2023-05-07T06:30:13;11.43;;;10.32;;
10387;SDS011;5240;51.128;4.566;2023-05-07T06:32:41;12.77;;;11.35;;
10387;SDS011;5240;51.128;4.566;2023-05-07T06:35:08;12.57;;;11.50;;
10387;SDS011;5240;51.128;4.566;2023-05-07T06:37:36;12.18;;;10.95;;
10387;SDS011;5240;51.128;4.566;2023-05-07T06:40:04;12.50;;;11.13;;
10387;SDS011;5240;51.128;4.566;2023-05-07T06:42:32;13.32;;;12.02;;
10387;SDS011;5240;51.128;4.566;2023-05-07T06:44:59;12.13;;;11.00;;
10387;SDS011;5240;51.128;4.566;2023-05-07T06:47:26;12.18;;;11.00;;
10387;SDS011;5240;51.128;4.566;2023-05-07T06:49:54;12.60;;;11.23;;
10387;SDS011;5240;51.128;4.566;2023-05-07T06:52:21;13.07;;;10.55;;
10387;SDS011;5240;51.128;4.566;2023-05-07T06:54:49;14.98;;;13.48;;
10387;SDS011;5240;51.128;4.566;2023-05-07T06:57:16;12.55;;;11.30;;
10387;SDS011;5240;51.128;4.566;2023-05-07T06:59:43;12.63;;;11.10;;
10387;SDS011;5240;51.128;4.566;2023-05-07T07:02:10;13.05;;;11.85;;
10387;SDS011;5240;51.128;4.566;2023-05-07T07:04:37;13.25;;;11.95;;
10387;SDS011;5240;51.128;4.566;2023-05-07T07:07:05;12.77;;;11.63;;
10387;SDS011;5240;51.128;4.566;2023-05-07T07:09:32;24.27;;;21.80;;
10387;SDS011;5240;51.128;4.566;2023-05-07T07:11:59;13.98;;;12.43;;
10387;SDS011;5240;51.128;4.566;2023-05-07T07:14:26;14.48;;;13.05;;
10387;SDS011;5240;51.128;4.566;2023-05-07T07:16:53;13.25;;;12.02;;
10387;SDS011;5240;51.128;4.566;2023-05-07T07:19:20;13.10;;;11.75;;
10387;SDS011;5240;51.128;4.566;2023-05-07T07:21:47;14.10;;;12.70;;
10387;SDS011;5240;51.128;4.566;2023-05-07T07:24:16;13.25;;;12.02;;
10387;SDS011;5240;51.128;4.566;2023-05-07T07:26:46;13.23;;;11.90;;
10387;SDS011;5240;51.128;4.566;2023-05-07T07:29:13;13.57;;;12.20;;
10387;SDS011;5240;51.128;4.566;2023-05-07T07:31:40;12.45;;;11.27;;
10387;SDS011;5240;51.128;4.566;2023-05-07T07:34:09;13.55;;;12.30;;
10387;SDS011;5240;51.128;4.566;2023-05-07T07:36:36;14.27;;;12.98;;
10387;SDS011;5240;51.128;4.566;2023-05-07T07:39:03;14.55;;;12.95;;
10387;SDS011;5240;51.128;4.566;2023-05-07T07:41:32;14.02;;;12.65;;
10387;SDS011;5240;51.128;4.566;2023-05-07T07:43:59;13.30;;;12.07;;
10387;SDS011;5240;51.128;4.566;2023-05-07T07:46:26;12.90;;;11.70;;
10387;SDS011;5240;51.128;4.566;2023-05-07T07:48:53;12.75;;;11.45;;
10387;SDS011;5240;51.128;4.566;2023-05-07T07:51:20;13.75;;;12.35;;
10387;SDS011;5240;51.128;4.566;2023-05-07T07:53:47;12.95;;;11.65;;
10387;SDS011;5240;51.128;4.566;2023-05-07T07:56:14;13.65;;;12.25;;
10387;SDS011;5240;51.128;4.566;2023-05-07T07:58:42;13.00;;;11.75;;
10387;SDS011;5240;51.128;4.566;2023-05-07T08:01:10;13.50;;;12.13;;
10387;SDS011;5240;51.128;4.566;2023-05-07T08:03:37;13.27;;;11.98;;
10387;SDS011;5240;51.128;4.566;2023-05-07T08:06:05;13.48;;;12.15;;
10387;SDS011;5240;51.128;4.566;2023-05-07T08:08:32;13.73;;;11.85;;
10387;SDS011;5240;51.128;4.566;2023-05-07T08:10:59;14.23;;;11.05;;
10387;SDS011;5240;51.128;4.566;2023-05-07T08:13:26;14.93;;;11.23;;
10387;SDS011;5240;51.128;4.566;2023-05-07T08:15:55;14.48;;;11.18;;
10387;SDS011;5240;51.128;4.566;2023-05-07T08:18:22;12.77;;;11.25;;
10387;SDS011;5240;51.128;4.566;2023-05-07T08:20:49;12.65;;;11.38;;
10387;SDS011;5240;51.128;4.566;2023-05-07T08:23:16;11.65;;;10.07;;
10387;SDS011;5240;51.128;4.566;2023-05-07T08:25:43;12.07;;;10.77;;
10387;SDS011;5240;51.128;4.566;2023-05-07T08:28:10;11.95;;;10.73;;
10387;SDS011;5240;51.128;4.566;2023-05-07T08:30:37;15.63;;;12.45;;
10387;SDS011;5240;51.128;4.566;2023-05-07T08:33:06;15.40;;;11.52;;
10387;SDS011;5240;51.128;4.566;2023-05-07T08:35:35;17.45;;;12.43;;
10387;SDS011;5240;51.128;4.566;2023-05-07T08:38:02;14.25;;;11.85;;
10387;SDS011;5240;51.128;4.566;2023-05-07T08:40:29;17.58;;;12.60;;
10387;SDS011;5240;51.128;4.566;2023-05-07T08:43:02;15.80;;;12.95;;
10387;SDS011;5240;51.128;4.566;2023-05-07T08:45:32;14.77;;;12.57;;
10387;SDS011;5240;51.128;4.566;2023-05-07T08:48:01;16.05;;;12.88;;
10387;SDS011;5240;51.128;4.566;2023-05-07T08:50:30;17.30;;;12.32;;
10387;SDS011;5240;51.128;4.566;2023-05-07T08:52:58;12.95;;;11.65;;
10387;SDS011;5240;51.128;4.566;2023-05-07T08:55:25;14.35;;;12.35;;
10387;SDS011;5240;51.128;4.566;2023-05-07T08:57:52;14.52;;;12.13;;
10387;SDS011;5240;51.128;4.566;2023-05-07T09:00:19;14.93;;;12.00;;
10387;SDS011;5240;51.128;4.566;2023-05-07T09:02:46;15.30;;;12.40;;
10387;SDS011;5240;51.128;4.566;2023-05-07T09:05:13;14.70;;;11.70;;
10387;SDS011;5240;51.128;4.566;2023-05-07T09:07:41;15.13;;;12.00;;
10387;SDS011;5240;51.128;4.566;2023-05-07T09:10:09;17.35;;;12.30;;
10387;SDS011;5240;51.128;4.566;2023-05-07T09:12:36;14.40;;;12.25;;
10387;SDS011;5240;51.128;4.566;2023-05-07T09:15:04;14.57;;;12.02;;
10387;SDS011;5240;51.128;4.566;2023-05-07T09:17:32;13.13;;;10.02;;
10387;SDS011;5240;51.128;4.566;2023-05-07T09:20:01;12.40;;;11.07;;
10387;SDS011;5240;51.128;4.566;2023-05-07T09:22:31;12.65;;;10.48;;
10387;SDS011;5240;51.128;4.566;2023-05-07T09:25:00;12.65;;;10.90;;
10387;SDS011;5240;51.128;4.566;2023-05-07T09:27:27;14.98;;;10.93;;
10387;SDS011;5240;51.128;4.566;2023-05-07T09:29:53;12.93;;;11.02;;
10387;SDS011;5240;51.128;4.566;2023-05-07T09:32:21;12.05;;;10.57;;
10387;SDS011;5240;51.128;4.566;2023-05-07T09:34:48;16.02;;;11.80;;
10387;SDS011;5240;51.128;4.566;2023-05-07T09:37:16;18.42;;;12.27;;
10387;SDS011;5240;51.128;4.566;2023-05-07T09:39:44;16.95;;;14.00;;
10387;SDS011;5240;51.128;4.566;2023-05-07T09:42:14;17.13;;;13.18;;
10387;SDS011;5240;51.128;4.566;2023-05-07T09:44:42;15.95;;;13.75;;
10387;SDS011;5240;51.128;4.566;2023-05-07T09:47:10;14.50;;;13.07;;
10387;SDS011;5240;51.128;4.566;2023-05-07T09:49:40;21.65;;;19.33;;
10387;SDS011;5240;51.128;4.566;2023-05-07T09:52:13;15.30;;;13.73;;
10387;SDS011;5240;51.128;4.566;2023-05-07T09:54:40;17.92;;;14.50;;
10387;SDS011;5240;51.128;4.566;2023-05-07T09:57:09;18.83;;;15.57;;
10387;SDS011;5240;51.128;4.566;2023-05-07T09:59:39;16.50;;;14.15;;
10387;SDS011;5240;51.128;4.566;2023-05-07T10:02:09;17.33;;;13.80;;
10387;SDS011;5240;51.128;4.566;2023-05-07T10:04:37;14.60;;;12.90;;
10387;SDS011;5240;51.128;4.566;2023-05-07T10:07:05;15.50;;;13.90;;
10387;SDS011;5240;51.128;4.566;2023-05-07T10:09:34;13.88;;;12.57;;
10387;SDS011;5240;51.128;4.566;2023-05-07T10:12:04;14.18;;;12.88;;
10387;SDS011;5240;51.128;4.566;2023-05-07T10:14:31;15.02;;;13.43;;
10387;SDS011;5240;51.128;4.566;2023-05-07T10:17:01;14.32;;;12.82;;
10387;SDS011;5240;51.128;4.566;2023-05-07T10:19:29;15.50;;;13.45;;
10387;SDS011;5240;51.128;4.566;2023-05-07T10:21:59;15.13;;;13.48;;
10387;SDS011;5240;51.128;4.566;2023-05-07T10:24:31;16.08;;;12.15;;
10387;SDS011;5240;51.128;4.566;2023-05-07T10:27:00;14.43;;;12.90;;
10387;SDS011;5240;51.128;4.566;2023-05-07T10:29:33;13.20;;;12.00;;
10387;SDS011;5240;51.128;4.566;2023-05-07T10:32:12;11.80;;;10.60;;
10387;SDS011;5240;51.128;4.566;2023-05-07T10:34:54;14.75;;;9.05;;
10387;SDS011;5240;51.128;4.566;2023-05-07T10:37:24;10.77;;;8.82;;
10387;SDS011;5240;51.128;4.566;2023-05-07T10:39:52;11.57;;;10.48;;
10387;SDS011;5240;51.128;4.566;2023-05-07T10:42:19;14.35;;;11.40;;
10387;SDS011;5240;51.128;4.566;2023-05-07T10:44:46;13.90;;;11.38;;
10387;SDS011;5240;51.128;4.566;2023-05-07T10:47:15;12.95;;;11.38;;
10387;SDS011;5240;51.128;4.566;2023-05-07T10:55:51;11.93;;;8.18;;
10387;SDS011;5240;51.128;4.566;2023-05-07T10:58:43;11.48;;;7.38;;
10387;SDS011;5240;51.128;4.566;2023-05-07T11:01:10;8.45;;;6.97;;
10387;SDS011;5240;51.128;4.566;2023-05-07T11:04:12;13.98;;;8.25;;
10387;SDS011;5240;51.128;4.566;2023-05-07T11:06:40;12.13;;;9.52;;
10387;SDS011;5240;51.128;4.566;2023-05-07T11:09:09;11.57;;;10.18;;
10387;SDS011;5240;51.128;4.566;2023-05-07T11:11:45;15.77;;;11.55;;
10387;SDS011;5240;51.128;4.566;2023-05-07T11:14:13;15.20;;;11.98;;
10387;SDS011;5240;51.128;4.566;2023-05-07T11:16:40;15.18;;;11.63;;
10387;SDS011;5240;51.128;4.566;2023-05-07T11:19:09;15.63;;;12.65;;
10387;SDS011;5240;51.128;4.566;2023-05-07T11:21:36;13.55;;;12.15;;
10387;SDS011;5240;51.128;4.566;2023-05-07T11:24:05;13.32;;;11.30;;
10387;SDS011;5240;51.128;4.566;2023-05-07T11:26:47;14.15;;;10.13;;
10387;SDS011;5240;51.128;4.566;2023-05-07T11:29:15;10.10;;;8.05;;
10387;SDS011;5240;51.128;4.566;2023-05-07T11:31:44;10.98;;;8.00;;
10387;SDS011;5240;51.128;4.566;2023-05-07T11:34:15;11.45;;;7.63;;
10387;SDS011;5240;51.128;4.566;2023-05-07T11:36:47;10.80;;;7.50;;
10387;SDS011;5240;51.128;4.566;2023-05-07T11:39:28;10.65;;;7.28;;
10387;SDS011;5240;51.128;4.566;2023-05-07T11:41:58;11.98;;;7.45;;
10387;SDS011;5240;51.128;4.566;2023-05-07T11:44:39;9.90;;;7.28;;
10387;SDS011;5240;51.128;4.566;2023-05-07T11:47:10;12.43;;;7.57;;
10387;SDS011;5240;51.128;4.566;2023-05-07T11:49:38;9.23;;;6.65;;
10387;SDS011;5240;51.128;4.566;2023-05-07T11:52:05;9.25;;;7.32;;
10387;SDS011;5240;51.128;4.566;2023-05-07T11:54:34;7.55;;;6.63;;
10387;SDS011;5240;51.128;4.566;2023-05-07T11:57:04;10.43;;;7.15;;
10387;SDS011;5240;51.128;4.566;2023-05-07T11:59:37;10.20;;;7.03;;
10387;SDS011;5240;51.128;4.566;2023-05-07T12:02:06;11.73;;;7.22;;
10387;SDS011;5240;51.128;4.566;2023-05-07T12:04:33;9.73;;;6.90;;
10387;SDS011;5240;51.128;4.566;2023-05-07T12:07:00;11.43;;;7.93;;
10387;SDS011;5240;51.128;4.566;2023-05-07T12:09:27;8.55;;;6.22;;
10387;SDS011;5240;51.128;4.566;2023-05-07T12:11:54;9.23;;;6.00;;
10387;SDS011;5240;51.128;4.566;2023-05-07T12:14:26;10.02;;;5.88;;
10387;SDS011;5240;51.128;4.566;2023-05-07T12:16:54;7.32;;;4.78;;
10387;SDS011;5240;51.128;4.566;2023-05-07T12:19:21;7.43;;;4.72;;
10387;SDS011;5240;51.128;4.566;2023-05-07T12:21:49;7.15;;;4.63;;
10387;SDS011;5240;51.128;4.566;2023-05-07T12:24:16;9.98;;;5.53;;
10387;SDS011;5240;51.128;4.566;2023-05-07T12:26:43;7.20;;;5.53;;
10387;SDS011;5240;51.128;4.566;2023-05-07T12:29:10;8.68;;;5.70;;
10387;SDS011;5240;51.128;4.566;2023-05-07T12:31:41;9.57;;;6.20;;
10387;SDS011;5240;51.128;4.566;2023-05-07T12:34:10;9.07;;;6.50;;
10387;SDS011;5240;51.128;4.566;2023-05-07T12:36:37;7.35;;;5.68;;
10387;SDS011;5240;51.128;4.566;2023-05-07T12:39:04;7.68;;;5.93;;
10387;SDS011;5240;51.128;4.566;2023-05-07T12:41:35;9.65;;;5.97;;
10387;SDS011;5240;51.128;4.566;2023-05-07T12:44:03;8.73;;;5.55;;
10387;SDS011;5240;51.128;4.566;2023-05-07T12:46:31;7.00;;;5.65;;
10387;SDS011;5240;51.128;4.566;2023-05-07T12:48:59;7.63;;;5.78;;
10387;SDS011;5240;51.128;4.566;2023-05-07T12:51:27;7.85;;;5.72;;
10387;SDS011;5240;51.128;4.566;2023-05-07T12:53:55;8.13;;;6.10;;
10387;SDS011;5240;51.128;4.566;2023-05-07T12:56:23;8.07;;;4.65;;
10387;SDS011;5240;51.128;4.566;2023-05-07T12:58:50;6.78;;;4.25;;
10387;SDS011;5240;51.128;4.566;2023-05-07T13:01:17;5.97;;;3.67;;
10387;SDS011;5240;51.128;4.566;2023-05-07T13:03:47;7.15;;;3.80;;
10387;SDS011;5240;51.128;4.566;2023-05-07T13:06:16;6.75;;;3.55;;
10387;SDS011;5240;51.128;4.566;2023-05-07T13:08:44;7.30;;;3.25;;
10387;SDS011;5240;51.128;4.566;2023-05-07T13:11:11;4.78;;;3.20;;
10387;SDS011;5240;51.128;4.566;2023-05-07T13:13:39;5.40;;;3.40;;
10387;SDS011;5240;51.128;4.566;2023-05-07T13:16:07;5.15;;;3.22;;
10387;SDS011;5240;51.128;4.566;2023-05-07T13:18:35;6.63;;;3.28;;
10387;SDS011;5240;51.128;4.566;2023-05-07T13:21:02;7.00;;;3.30;;
10387;SDS011;5240;51.128;4.566;2023-05-07T13:23:31;5.85;;;3.50;;
10387;SDS011;5240;51.128;4.566;2023-05-07T13:25:58;6.13;;;3.53;;
10387;SDS011;5240;51.128;4.566;2023-05-07T13:28:25;5.78;;;3.85;;
10387;SDS011;5240;51.128;4.566;2023-05-07T13:30:52;7.25;;;4.13;;
10387;SDS011;5240;51.128;4.566;2023-05-07T13:33:19;6.65;;;3.40;;
10387;SDS011;5240;51.128;4.566;2023-05-07T13:35:46;7.30;;;3.78;;
10387;SDS011;5240;51.128;4.566;2023-05-07T13:38:13;7.43;;;3.92;;
10387;SDS011;5240;51.128;4.566;2023-05-07T13:40:42;9.68;;;4.30;;
10387;SDS011;5240;51.128;4.566;2023-05-07T13:43:09;5.38;;;3.50;;
10387;SDS011;5240;51.128;4.566;2023-05-07T13:45:36;4.00;;;2.78;;
10387;SDS011;5240;51.128;4.566;2023-05-07T13:48:03;5.63;;;3.22;;
10387;SDS011;5240;51.128;4.566;2023-05-07T13:50:31;6.13;;;3.08;;
10387;SDS011;5240;51.128;4.566;2023-05-07T13:52:58;6.82;;;3.00;;
10387;SDS011;5240;51.128;4.566;2023-05-07T13:55:25;8.23;;;3.33;;
10387;SDS011;5240;51.128;4.566;2023-05-07T13:57:56;6.20;;;3.50;;
10387;SDS011;5240;51.128;4.566;2023-05-07T14:00:24;5.30;;;3.58;;
10387;SDS011;5240;51.128;4.566;2023-05-07T14:02:52;6.28;;;3.38;;
10387;SDS011;5240;51.128;4.566;2023-05-07T14:05:19;4.95;;;3.30;;
10387;SDS011;5240;51.128;4.566;2023-05-07T14:07:48;5.95;;;3.38;;
10387;SDS011;5240;51.128;4.566;2023-05-07T14:10:16;7.10;;;3.72;;
10387;SDS011;5240;51.128;4.566;2023-05-07T14:12:43;7.60;;;3.70;;
10387;SDS011;5240;51.128;4.566;2023-05-07T14:15:12;5.50;;;3.45;;
10387;SDS011;5240;51.128;4.566;2023-05-07T14:17:40;6.22;;;3.30;;
10387;SDS011;5240;51.128;4.566;2023-05-07T14:20:07;7.25;;;3.75;;
10387;SDS011;5240;51.128;4.566;2023-05-07T14:22:35;5.30;;;3.40;;
10387;SDS011;5240;51.128;4.566;2023-05-07T14:25:05;6.18;;;4.15;;
10387;SDS011;5240;51.128;4.566;2023-05-07T14:27:34;5.68;;;3.40;;
10387;SDS011;5240;51.128;4.566;2023-05-07T14:30:01;7.18;;;3.78;;
10387;SDS011;5240;51.128;4.566;2023-05-07T14:32:30;5.53;;;3.70;;
10387;SDS011;5240;51.128;4.566;2023-05-07T14:34:58;6.88;;;3.75;;
10387;SDS011;5240;51.128;4.566;2023-05-07T14:37:25;5.07;;;3.80;;
10387;SDS011;5240;51.128;4.566;2023-05-07T14:39:52;5.10;;;4.00;;
10387;SDS011;5240;51.128;4.566;2023-05-07T14:42:19;7.45;;;4.78;;
10387;SDS011;5240;51.128;4.566;2023-05-07T14:44:46;7.95;;;4.78;;
10387;SDS011;5240;51.128;4.566;2023-05-07T14:47:13;7.75;;;5.00;;
10387;SDS011;5240;51.128;4.566;2023-05-07T14:49:42;6.88;;;5.57;;
10387;SDS011;5240;51.128;4.566;2023-05-07T14:52:09;6.82;;;5.38;;